createdAt,value
2022-12-20T00:01:28.801Z,31.60
2022-12-20T00:04:30.472Z,31.87
2022-12-20T00:07:32.787Z,33.13
2022-12-20T00:10:41.734Z,31.85
2022-12-20T00:13:46.433Z,35.92
2022-12-20T00:16:48.058Z,30.20
2022-12-20T00:19:49.692Z,33.42
2022-12-20T00:22:51.407Z,31.23
2022-12-20T00:25:53.290Z,30.88
2022-12-20T00:28:56.123Z,29.00
2022-12-20T00:31:57.802Z,33.42
2022-12-20T00:34:59.440Z,31.50
2022-12-20T00:38:01.096Z,31.40
2022-12-20T00:41:14.095Z,38.80
2022-12-20T00:44:15.804Z,30.50
2022-12-20T00:47:17.703Z,31.73
2022-12-20T00:50:19.363Z,32.67
2022-12-20T00:53:26.168Z,32.70
2022-12-20T00:56:28.220Z,32.42
2022-12-20T00:59:29.888Z,34.00
2022-12-20T01:02:31.689Z,32.25
2022-12-20T01:05:34.021Z,31.58
2022-12-20T01:08:35.776Z,33.58
2022-12-20T01:11:38.848Z,30.75
2022-12-20T01:14:40.730Z,35.45
2022-12-20T01:17:42.505Z,33.65
2022-12-20T01:20:44.105Z,32.78
2022-12-20T01:23:46.236Z,35.08
2022-12-20T01:26:48.229Z,32.40
2022-12-20T01:29:49.966Z,33.67
2022-12-20T01:32:51.609Z,35.72
2022-12-20T01:36:01.269Z,33.67
2022-12-20T01:39:09.478Z,34.70
2022-12-20T01:42:15.433Z,32.85
2022-12-20T01:45:27.275Z,35.38
2022-12-20T01:48:29.120Z,32.53
2022-12-20T01:51:34.587Z,32.47
2022-12-20T01:54:41.171Z,31.50
2022-12-20T01:57:48.149Z,31.20
2022-12-20T02:00:49.877Z,33.20
2022-12-20T02:03:54.130Z,31.83
2022-12-20T02:06:56.259Z,31.48
2022-12-20T02:10:00.649Z,30.90
2022-12-20T02:13:12.577Z,29.52
2022-12-20T02:16:22.847Z,30.35
2022-12-20T02:19:46.533Z,31.65
2022-12-20T02:23:13.642Z,32.78
2022-12-20T02:27:00.455Z,29.02
2022-12-20T02:30:17.770Z,32.30
2022-12-20T02:33:22.230Z,32.83
2022-12-20T02:36:25.577Z,33.28
2022-12-20T02:39:29.893Z,31.98
2022-12-20T02:42:33.302Z,32.97
2022-12-20T02:45:37.573Z,31.58
2022-12-20T02:48:41.646Z,32.45
2022-12-20T02:51:47.600Z,34.20
2022-12-20T02:54:49.312Z,32.63
2022-12-20T02:58:00.643Z,33.13
2022-12-20T03:01:09.117Z,36.20
2022-12-20T03:04:11.585Z,31.35
2022-12-20T03:07:14.331Z,33.30
2022-12-20T03:10:17.646Z,32.80
2022-12-20T03:13:19.885Z,34.90
2022-12-20T03:16:22.264Z,33.17
2022-12-20T03:19:24.512Z,33.83
2022-12-20T03:22:26.202Z,33.60
2022-12-20T03:25:27.961Z,34.28
2022-12-20T03:28:29.622Z,33.30
2022-12-20T03:31:31.500Z,37.80
2022-12-20T03:34:33.254Z,36.22
2022-12-20T03:37:34.893Z,32.35
2022-12-20T03:40:36.528Z,33.90
2022-12-20T03:43:38.152Z,31.95
2022-12-20T03:46:39.965Z,31.95
2022-12-20T03:49:41.642Z,30.83
2022-12-20T03:52:43.275Z,30.85
2022-12-20T03:55:45.757Z,29.67
2022-12-20T03:58:47.546Z,31.40
2022-12-20T04:01:49.305Z,31.52
2022-12-20T04:04:51.127Z,32.58
2022-12-20T04:07:52.787Z,31.08
2022-12-20T04:11:12.929Z,33.10
2022-12-20T04:14:14.565Z,32.67
2022-12-20T04:17:16.246Z,29.90
2022-12-20T04:20:20.766Z,31.35
2022-12-20T04:23:22.480Z,31.37
2022-12-20T04:26:25.312Z,32.42
2022-12-20T04:29:27.082Z,30.83
2022-12-20T04:32:28.712Z,31.85
2022-12-20T04:35:30.341Z,33.53
2022-12-20T04:38:31.982Z,32.15
2022-12-20T04:41:33.649Z,33.33
2022-12-20T04:44:35.295Z,32.47
2022-12-20T04:47:36.974Z,34.30
2022-12-20T04:50:39.582Z,31.27
2022-12-20T04:53:49.965Z,32.15
2022-12-20T04:56:51.607Z,32.45
2022-12-20T04:59:53.264Z,34.70
2022-12-20T05:02:55.057Z,35.20
2022-12-20T05:05:56.846Z,32.58
2022-12-20T05:08:58.566Z,31.75
2022-12-20T05:12:00.234Z,31.62
2022-12-20T05:15:01.933Z,33.50
2022-12-20T05:18:04.067Z,35.92
2022-12-20T05:21:24.617Z,35.25
2022-12-20T05:24:44.681Z,33.72
2022-12-20T05:27:46.329Z,37.58
2022-12-20T05:30:47.961Z,36.17
2022-12-20T05:33:49.668Z,35.70
2022-12-20T05:36:51.562Z,34.78
2022-12-20T05:39:53.186Z,32.28
2022-12-20T05:42:55.302Z,36.90
2022-12-20T05:45:56.955Z,37.83
2022-12-20T05:48:58.777Z,36.58
2022-12-20T05:52:02.427Z,34.70
2022-12-20T05:55:04.300Z,33.17
2022-12-20T05:58:07.454Z,37.78
2022-12-20T06:01:10.486Z,34.88
2022-12-20T06:04:12.242Z,33.53
2022-12-20T06:07:13.977Z,31.85
2022-12-20T06:10:15.673Z,33.10
2022-12-20T06:13:17.743Z,34.30
2022-12-20T06:16:20.825Z,32.67
2022-12-20T06:19:22.530Z,32.63
2022-12-20T06:22:24.144Z,34.80
2022-12-20T06:25:25.848Z,34.08
2022-12-20T06:28:27.525Z,33.17
2022-12-20T06:31:29.274Z,34.40
2022-12-20T06:34:32.078Z,35.33
2022-12-20T06:37:33.878Z,35.30
2022-12-20T06:40:35.552Z,32.13
2022-12-20T06:43:37.224Z,34.25
2022-12-20T06:46:38.965Z,34.80
2022-12-20T06:49:40.578Z,36.80
2022-12-20T06:52:42.369Z,33.53
2022-12-20T06:55:47.943Z,36.08
2022-12-20T06:58:49.556Z,31.37
2022-12-20T07:01:51.398Z,34.30
2022-12-20T07:04:53.515Z,32.40
2022-12-20T07:07:55.160Z,31.45
2022-12-20T07:10:57.011Z,34.35
2022-12-20T07:13:59.053Z,31.92
2022-12-20T07:17:00.905Z,33.50
2022-12-20T07:20:07.584Z,35.30
2022-12-20T07:23:12.689Z,34.25
2022-12-20T07:26:15.426Z,31.08
2022-12-20T07:29:17.065Z,30.48
2022-12-20T07:32:18.877Z,28.95
2022-12-20T07:35:20.580Z,32.03
2022-12-20T07:38:22.254Z,30.70
2022-12-20T07:41:25.223Z,29.65
2022-12-20T07:44:26.847Z,31.85
2022-12-20T07:47:29.403Z,28.42
2022-12-20T07:50:32.960Z,27.52
2022-12-20T07:53:40.217Z,27.15
2022-12-20T07:56:47.386Z,25.33
2022-12-20T07:59:54.571Z,33.85
2022-12-20T08:03:04.834Z,28.35
2022-12-20T08:06:08.179Z,26.15
2022-12-20T08:09:13.495Z,24.17
2022-12-20T08:12:18.267Z,25.67
2022-12-20T08:15:22.425Z,24.12
2022-12-20T08:18:24.336Z,24.02
2022-12-20T08:21:26.579Z,20.27
2022-12-20T08:24:28.240Z,24.52
2022-12-20T08:27:29.971Z,22.98
2022-12-20T08:30:31.769Z,21.27
2022-12-20T08:33:35.184Z,21.98
2022-12-20T08:36:37.022Z,21.90
2022-12-20T08:39:39.170Z,23.40
2022-12-20T08:42:40.803Z,23.00
2022-12-20T08:45:42.513Z,23.38
2022-12-20T08:48:44.257Z,25.62
2022-12-20T08:51:45.960Z,21.42
2022-12-20T08:54:47.688Z,21.92
2022-12-20T08:57:49.309Z,31.52
2022-12-20T09:00:50.942Z,20.95
2022-12-20T09:03:53.328Z,31.23
2022-12-20T09:06:54.983Z,25.65
2022-12-20T09:09:56.587Z,23.45
2022-12-20T09:12:58.216Z,25.70
2022-12-20T09:16:04.693Z,25.85
2022-12-20T09:19:06.870Z,24.73
2022-12-20T09:22:28.967Z,26.30
2022-12-20T09:25:30.622Z,25.08
2022-12-20T09:28:33.563Z,23.95
2022-12-20T09:31:35.390Z,23.90
2022-12-20T09:34:37.120Z,20.98
2022-12-20T09:37:38.764Z,21.77
2022-12-20T09:40:48.502Z,20.67
2022-12-20T09:43:50.713Z,21.40
2022-12-20T09:47:20.749Z,18.02
2022-12-20T09:50:38.112Z,18.55
2022-12-20T09:53:45.779Z,21.23
2022-12-20T09:57:18.215Z,20.65
2022-12-20T10:00:20.998Z,20.55
2022-12-20T10:03:29.246Z,21.90
2022-12-20T10:07:00.683Z,19.42
2022-12-20T10:10:05.140Z,22.95
2022-12-20T10:13:16.570Z,21.67
2022-12-20T10:16:25.605Z,22.05
2022-12-20T10:19:27.290Z,21.35
2022-12-20T10:22:53.011Z,23.02
2022-12-20T10:25:57.622Z,21.33
2022-12-20T10:28:59.490Z,22.83
2022-12-20T10:32:02.286Z,24.80
2022-12-20T10:35:10.072Z,22.05
2022-12-20T10:38:13.850Z,20.33
2022-12-20T10:41:21.809Z,22.30
2022-12-20T10:44:28.390Z,24.58
2022-12-20T10:47:38.940Z,23.38
2022-12-20T10:50:40.703Z,22.52
2022-12-20T10:54:01.380Z,21.65
2022-12-20T10:57:27.718Z,22.60
2022-12-20T11:00:31.019Z,22.45
2022-12-20T11:03:33.004Z,22.62
2022-12-20T11:06:37.781Z,21.85
2022-12-20T11:09:54.916Z,20.92
2022-12-20T11:12:59.081Z,21.17
2022-12-20T11:16:01.731Z,19.98
2022-12-20T11:19:17.402Z,22.23
2022-12-20T11:22:34.806Z,23.92
2022-12-20T11:25:48.550Z,21.73
2022-12-20T11:29:24.314Z,24.30
2022-12-20T11:32:28.603Z,23.70
2022-12-20T11:35:39.284Z,19.45
2022-12-20T11:38:45.652Z,17.80
2022-12-20T11:42:02.143Z,21.35
2022-12-20T11:45:25.279Z,21.40
2022-12-20T11:49:01.030Z,21.77
2022-12-20T11:52:24.301Z,20.83
2022-12-20T11:55:35.041Z,22.37
2022-12-20T11:59:00.253Z,19.25
2022-12-20T12:02:13.175Z,23.65
2022-12-20T12:05:29.942Z,20.05
2022-12-20T12:08:40.920Z,22.00
2022-12-20T12:12:06.827Z,23.08
2022-12-20T12:15:16.992Z,23.02
2022-12-20T12:18:25.447Z,19.75
2022-12-20T12:21:33.669Z,20.35
2022-12-20T12:24:42.623Z,19.20
2022-12-20T12:27:44.870Z,17.15
2022-12-20T12:30:56.902Z,18.27
2022-12-20T12:34:27.524Z,17.15
2022-12-20T12:37:53.213Z,22.45
2022-12-20T12:41:06.712Z,22.27
2022-12-20T12:44:46.119Z,20.58
2022-12-20T12:47:56.762Z,20.23
2022-12-20T12:50:59.554Z,24.30
2022-12-20T12:54:24.428Z,18.48
2022-12-20T12:57:26.171Z,18.80
2022-12-20T13:00:54.075Z,19.37
2022-12-20T13:03:55.844Z,18.45
2022-12-20T13:07:18.845Z,20.33
2022-12-20T13:10:21.969Z,18.95
2022-12-20T13:13:24.168Z,18.02
2022-12-20T13:17:02.312Z,17.77
2022-12-20T13:19:53.874Z,18.25
2022-12-20T13:23:07.882Z,18.05
2022-12-20T13:26:50.501Z,18.80
2022-12-20T13:30:13.239Z,17.87
2022-12-20T13:33:30.378Z,18.10
2022-12-20T13:36:37.861Z,18.73
2022-12-20T13:39:39.867Z,18.92
2022-12-20T13:42:43.512Z,17.30
2022-12-20T13:45:51.388Z,26.95
2022-12-20T13:48:57.116Z,21.50
2022-12-20T13:52:23.146Z,18.70
2022-12-20T13:55:39.160Z,16.83
2022-12-20T13:58:43.896Z,19.55
2022-12-20T14:01:53.787Z,20.80
2022-12-20T14:05:10.308Z,19.55
2022-12-20T14:08:23.017Z,20.80
2022-12-20T14:11:29.479Z,20.52
2022-12-20T14:14:31.477Z,21.42
2022-12-20T14:17:33.565Z,22.85
2022-12-20T14:20:37.690Z,20.45
2022-12-20T14:23:47.631Z,19.00
2022-12-20T14:26:52.734Z,18.45
2022-12-20T14:29:54.413Z,20.60
2022-12-20T14:32:57.129Z,22.08
2022-12-20T14:36:07.991Z,24.08
2022-12-20T14:39:32.582Z,22.05
2022-12-20T14:42:36.357Z,19.23
2022-12-20T14:45:38.737Z,23.20
2022-12-20T14:48:40.441Z,21.42
2022-12-20T14:51:42.265Z,22.33
2022-12-20T14:55:07.626Z,31.02
2022-12-20T14:58:31.279Z,32.83
2022-12-20T15:01:37.069Z,25.77
2022-12-20T15:04:41.651Z,25.98
2022-12-20T15:07:43.316Z,24.17
2022-12-20T15:10:55.261Z,21.77
2022-12-20T15:13:59.050Z,22.65
2022-12-20T15:17:00.836Z,21.87
2022-12-20T15:20:02.468Z,24.02
2022-12-20T15:23:04.213Z,23.25
2022-12-20T15:26:05.851Z,25.37
2022-12-20T15:29:15.280Z,22.80
2022-12-20T15:32:34.837Z,28.02
2022-12-20T15:35:37.166Z,28.27
2022-12-20T15:39:03.937Z,23.00
2022-12-20T15:42:04.216Z,21.87
2022-12-20T15:45:06.225Z,32.88
2022-12-20T15:48:14.029Z,27.60
2022-12-20T15:51:30.436Z,25.95
2022-12-20T15:54:37.125Z,26.77
2022-12-20T15:57:38.775Z,25.83
2022-12-20T16:00:41.718Z,57.08
2022-12-20T16:03:43.555Z,32.15
2022-12-20T16:06:47.657Z,25.92
2022-12-20T16:09:49.367Z,25.25
2022-12-20T16:12:51.026Z,28.17
2022-12-20T16:15:53.615Z,27.92
2022-12-20T16:18:55.565Z,25.73
2022-12-20T16:21:58.117Z,24.42
2022-12-20T16:24:59.739Z,23.73
2022-12-20T16:28:01.712Z,27.15
2022-12-20T16:31:11.439Z,27.45
2022-12-20T16:34:16.177Z,27.37
2022-12-20T16:37:18.246Z,27.80
2022-12-20T16:40:19.987Z,25.83
2022-12-20T16:43:21.630Z,22.23
2022-12-20T16:46:27.311Z,21.25
2022-12-20T16:49:29.021Z,22.58
2022-12-20T16:52:30.884Z,25.42
2022-12-20T16:55:39.445Z,21.20
2022-12-20T16:59:17.406Z,32.90
2022-12-20T17:02:20.000Z,32.78
2022-12-20T17:11:43.352Z,27.00
2022-12-20T17:14:45.222Z,30.80
2022-12-20T17:17:47.313Z,35.35
2022-12-20T17:20:49.032Z,31.23
2022-12-20T17:23:51.798Z,27.58
2022-12-20T17:26:53.570Z,24.90
2022-12-20T17:29:55.248Z,27.17
2022-12-20T17:32:56.877Z,27.27
2022-12-20T17:35:58.536Z,29.20
2022-12-20T17:39:00.181Z,35.47
2022-12-20T17:42:01.929Z,31.83
2022-12-20T17:45:03.862Z,25.45
2022-12-20T17:48:05.899Z,25.20
2022-12-20T17:51:15.136Z,31.92
2022-12-20T17:54:22.068Z,33.55
2022-12-20T17:57:23.738Z,39.78
2022-12-20T18:00:34.768Z,31.23
2022-12-20T18:04:02.949Z,32.42
2022-12-20T18:07:02.269Z,30.92
2022-12-20T18:10:04.232Z,31.77
2022-12-20T18:13:06.402Z,32.58
2022-12-20T18:16:08.617Z,29.27
2022-12-20T18:19:18.448Z,30.67
2022-12-20T18:22:20.088Z,30.83
2022-12-20T18:25:22.061Z,32.38
2022-12-20T18:28:23.959Z,29.70
2022-12-20T18:31:28.353Z,32.03
2022-12-20T18:34:30.170Z,32.47
2022-12-20T18:37:32.241Z,35.03
2022-12-20T18:40:34.234Z,28.38
2022-12-20T18:43:36.255Z,28.23
2022-12-20T18:46:38.438Z,41.17
2022-12-20T18:49:40.332Z,33.75
2022-12-20T18:52:43.851Z,35.50
2022-12-20T18:55:48.886Z,33.25
2022-12-20T18:58:50.692Z,28.98
2022-12-20T19:01:53.281Z,30.55
2022-12-20T19:04:55.166Z,31.12
2022-12-20T19:07:57.377Z,30.73
2022-12-20T19:11:04.353Z,35.33
2022-12-20T19:14:07.858Z,38.78
2022-12-20T19:17:10.044Z,35.83
2022-12-20T19:20:11.812Z,32.70
2022-12-20T19:23:13.995Z,32.05
2022-12-20T19:26:16.920Z,35.63
2022-12-20T19:29:20.901Z,45.72
2022-12-20T19:32:22.938Z,52.47
2022-12-20T19:35:54.076Z,27.15
2022-12-20T19:38:52.129Z,23.67
2022-12-20T19:42:24.633Z,26.27
2022-12-20T19:45:16.222Z,32.00
2022-12-20T19:48:19.609Z,27.60
2022-12-20T19:51:22.144Z,27.55
2022-12-20T19:54:23.773Z,28.92
2022-12-20T19:57:26.082Z,23.60
2022-12-20T20:00:28.426Z,20.75
2022-12-20T20:03:31.442Z,20.10
2022-12-20T20:06:33.793Z,21.62
2022-12-20T20:09:36.625Z,22.40
2022-12-20T20:12:38.635Z,22.23
2022-12-20T20:15:40.705Z,22.87
2022-12-20T20:18:43.435Z,19.52
2022-12-20T20:21:45.668Z,18.80
2022-12-20T20:24:47.867Z,18.62
2022-12-20T20:27:49.820Z,19.48
2022-12-20T20:30:52.282Z,18.10
2022-12-20T20:33:55.034Z,20.95
2022-12-20T20:36:57.707Z,20.10
2022-12-20T20:39:59.892Z,21.08
2022-12-20T20:43:02.227Z,21.30
2022-12-20T20:46:04.825Z,21.85
2022-12-20T20:49:06.628Z,23.35
2022-12-20T20:52:08.708Z,24.02
2022-12-20T20:55:10.656Z,25.92
2022-12-20T20:58:12.938Z,19.73
2022-12-20T21:01:15.013Z,20.58
2022-12-20T21:04:17.059Z,19.42
2022-12-20T21:07:19.216Z,20.17
2022-12-20T21:10:21.504Z,21.00
2022-12-20T21:13:24.350Z,19.70
2022-12-20T21:16:26.268Z,20.27
2022-12-20T21:19:27.961Z,20.08
2022-12-20T21:22:29.950Z,23.23
2022-12-20T21:25:32.090Z,23.92
2022-12-20T21:28:33.752Z,24.05
2022-12-20T21:31:36.294Z,25.77
2022-12-20T21:34:38.413Z,24.83
2022-12-20T21:37:40.049Z,25.62
2022-12-20T21:40:41.691Z,23.77
2022-12-20T21:43:43.837Z,24.63
2022-12-20T21:46:45.505Z,23.23
2022-12-20T21:49:47.283Z,23.98
2022-12-20T21:52:48.952Z,24.65
2022-12-20T21:55:54.007Z,28.10
2022-12-20T21:58:56.303Z,30.27
2022-12-20T22:01:58.420Z,41.03
2022-12-20T22:05:00.325Z,33.65
2022-12-20T22:08:01.999Z,27.30
2022-12-20T22:11:15.165Z,24.45
2022-12-20T22:14:16.807Z,26.37
2022-12-20T22:17:18.498Z,35.03
2022-12-20T22:20:20.112Z,31.40
2022-12-20T22:23:21.787Z,27.00
2022-12-20T22:26:26.075Z,29.77
2022-12-20T22:29:27.756Z,27.00
2022-12-20T22:32:29.380Z,22.40
2022-12-20T22:35:31.017Z,22.90
2022-12-20T22:38:32.946Z,33.33
2022-12-20T22:41:34.964Z,27.80
2022-12-20T22:44:36.839Z,23.95
2022-12-20T22:51:04.410Z,27.23
2022-12-20T22:54:06.053Z,33.05
2022-12-20T22:57:10.360Z,28.17
2022-12-20T23:00:13.256Z,24.35
2022-12-20T23:03:15.063Z,24.50
2022-12-20T23:06:20.287Z,20.95
2022-12-20T23:09:24.860Z,23.55
2022-12-20T23:12:45.579Z,22.27
2022-12-20T23:15:48.550Z,21.77
2022-12-20T23:18:53.347Z,22.05
2022-12-20T23:22:13.517Z,19.70
2022-12-20T23:25:18.238Z,20.70
2022-12-20T23:28:19.839Z,19.30
2022-12-20T23:31:21.470Z,20.35
2022-12-20T23:34:23.355Z,20.37
2022-12-20T23:37:25.088Z,19.12
2022-12-20T23:40:26.725Z,20.25
2022-12-20T23:43:31.242Z,19.10
2022-12-20T23:46:34.047Z,20.30
2022-12-20T23:49:36.173Z,20.58
2022-12-20T23:52:37.799Z,21.52
2022-12-20T23:55:39.640Z,20.92
2022-12-20T23:58:42.389Z,20.42
